createdAt,value
2022-10-26T04:19:40.918Z,101677.59
2022-10-26T04:22:08.979Z,101679.75
2022-10-26T04:24:38.165Z,101696.25
2022-10-26T04:27:05.417Z,101697.72
2022-10-26T04:29:32.640Z,101700.06
2022-10-26T04:32:00.256Z,101701.94
2022-10-26T04:34:28.083Z,101708.03
2022-10-26T04:36:55.875Z,101713.16
2022-10-26T04:39:23.988Z,101718.22
2022-10-26T04:41:51.520Z,101721.59
2022-10-26T04:44:19.167Z,101722.41
2022-10-26T04:46:46.890Z,101719.06
2022-10-26T04:49:14.654Z,101708.03
2022-10-26T04:51:41.940Z,101715.44
2022-10-26T04:54:09.366Z,101723.94
2022-10-26T04:56:37.030Z,101721.19
2022-10-26T04:59:04.712Z,101714.16
2022-10-26T05:01:32.783Z,101714.41
2022-10-26T05:04:00.189Z,101711.66
2022-10-26T05:06:27.440Z,101728.16
2022-10-26T05:08:55.091Z,101726.25
2022-10-26T05:11:22.441Z,101726.25
2022-10-26T05:13:50.255Z,101724.13
2022-10-26T05:16:17.528Z,101729.00
2022-10-26T05:18:48.292Z,101735.75
2022-10-26T05:21:19.596Z,101750.09
2022-10-26T05:23:52.590Z,101748.00
2022-10-26T05:26:20.627Z,101749.06
2022-10-26T05:28:48.908Z,101746.06
2022-10-26T05:31:16.199Z,101740.38
2022-10-26T05:33:43.589Z,101741.59
2022-10-26T05:36:11.443Z,101743.69
2022-10-26T05:38:38.839Z,101743.22
2022-10-26T05:41:06.569Z,101743.06
2022-10-26T05:43:33.805Z,101738.88
2022-10-26T05:46:01.318Z,101742.28
2022-10-26T05:48:29.026Z,101738.25
2022-10-26T05:51:00.335Z,101736.34
2022-10-26T05:53:28.512Z,101745.63
2022-10-26T05:55:56.773Z,101740.16
2022-10-26T05:58:24.823Z,101735.91
2022-10-26T06:01:07.828Z,101744.34
2022-10-26T06:03:59.220Z,101741.00
2022-10-26T06:06:27.980Z,101743.09
2022-10-26T06:08:55.539Z,101750.75
2022-10-26T06:11:23.041Z,101753.72
2022-10-26T06:13:54.555Z,101761.53
2022-10-26T06:16:47.124Z,101762.97
2022-10-26T06:19:23.975Z,101767.63
2022-10-26T06:22:12.120Z,101769.78
2022-10-26T06:24:54.332Z,101784.34
2022-10-26T06:27:38.993Z,101780.72
2022-10-26T06:30:12.325Z,101784.06
2022-10-26T06:32:44.919Z,101781.31
2022-10-26T06:35:23.941Z,101775.59
2022-10-26T06:37:54.067Z,101782.13
2022-10-26T06:40:22.828Z,101776.84
2022-10-26T06:42:50.312Z,101782.91
2022-10-26T06:45:18.053Z,101777.13
2022-10-26T06:48:14.807Z,101776.19
2022-10-26T06:50:55.012Z,101778.50
2022-10-26T06:56:14.003Z,101786.81
2022-10-26T06:58:43.803Z,101787.00
2022-10-26T07:01:12.477Z,101792.34
2022-10-26T07:03:39.791Z,101791.50
2022-10-26T07:06:07.340Z,101795.31
2022-10-26T07:08:35.336Z,101797.38
2022-10-26T07:11:02.667Z,101805.56
2022-10-26T07:13:30.176Z,101795.81
2022-10-26T07:15:57.601Z,101794.97
2022-10-26T07:18:25.088Z,101799.88
2022-10-26T07:20:53.242Z,101811.53
2022-10-26T07:23:23.133Z,101807.56
2022-10-26T07:25:50.911Z,101818.78
2022-10-26T07:28:18.184Z,101831.66
2022-10-26T07:30:46.106Z,101832.47
2022-10-26T07:33:14.653Z,101836.69
2022-10-26T07:35:42.494Z,101840.28
2022-10-26T07:38:11.343Z,101841.44
2022-10-26T07:40:38.586Z,101843.69
2022-10-26T07:43:07.158Z,101846.50
2022-10-26T07:45:35.195Z,101841.56
2022-10-26T07:48:02.903Z,101837.69
2022-10-26T07:50:31.256Z,101840.97
2022-10-26T07:52:59.797Z,101844.28
2022-10-26T07:55:28.240Z,101851.03
2022-10-26T07:57:56.502Z,101840.22
2022-10-26T08:00:25.664Z,101842.97
2022-10-26T08:02:53.109Z,101842.38
2022-10-26T08:05:20.497Z,101839.72
2022-10-26T08:07:48.736Z,101846.50
2022-10-26T08:10:16.945Z,101836.31
2022-10-26T08:12:44.402Z,101837.53
2022-10-26T08:15:12.051Z,101832.41
2022-10-26T08:17:39.360Z,101847.56
2022-10-26T08:20:07.412Z,101850.19
2022-10-26T08:22:34.818Z,101850.25
2022-10-26T08:25:02.552Z,101855.19
2022-10-26T08:27:29.860Z,101853.25
2022-10-26T08:29:57.059Z,101853.31
2022-10-26T08:32:24.958Z,101846.47
2022-10-26T08:34:52.768Z,101849.56
2022-10-26T08:37:19.975Z,101856.78
2022-10-26T08:39:49.311Z,101851.03
2022-10-26T08:42:30.526Z,101851.94
2022-10-26T08:45:06.524Z,101856.00
2022-10-26T08:47:44.048Z,101852.56
2022-10-26T08:50:31.591Z,101846.25
2022-10-26T08:53:18.057Z,101853.50
2022-10-26T08:55:51.178Z,101854.63
2022-10-26T08:58:24.739Z,101849.38
2022-10-26T09:00:53.653Z,101850.38
2022-10-26T09:03:21.016Z,101848.34
2022-10-26T09:06:06.925Z,101854.66
2022-10-26T09:08:55.190Z,101854.28
2022-10-26T09:11:43.598Z,101854.03
2022-10-26T09:14:21.132Z,101847.59
2022-10-26T09:17:06.080Z,101848.03
2022-10-26T09:20:06.440Z,101854.53
2022-10-26T09:22:53.487Z,101858.38
2022-10-26T09:25:23.700Z,101858.16
2022-10-26T09:27:55.884Z,101856.72
2022-10-26T09:30:24.546Z,101852.63
2022-10-26T09:33:15.292Z,101863.91
2022-10-26T09:35:50.011Z,101867.53
2022-10-26T09:38:44.508Z,101864.41
2022-10-26T09:41:44.230Z,101868.88
2022-10-26T09:44:20.393Z,101868.75
2022-10-26T09:47:02.557Z,101870.41
2022-10-26T09:49:48.902Z,101871.75
2022-10-26T09:52:16.723Z,101879.59
2022-10-26T09:54:44.287Z,101875.94
2022-10-26T09:57:16.714Z,101876.06
2022-10-26T09:59:48.105Z,101879.06
2022-10-26T10:02:34.206Z,101879.88
2022-10-26T10:05:02.006Z,101890.47
2022-10-26T10:07:29.727Z,101887.88
2022-10-26T10:10:18.879Z,101887.41
2022-10-26T10:12:49.885Z,101886.41
2022-10-26T10:15:23.897Z,101886.66
2022-10-26T10:17:54.266Z,101877.28
2022-10-26T10:20:31.159Z,101881.25
2022-10-26T10:23:00.588Z,101883.06
2022-10-26T10:25:38.957Z,101877.63
2022-10-26T10:28:24.710Z,101878.47
2022-10-26T10:30:59.362Z,101878.47
2022-10-26T10:33:38.723Z,101885.31
2022-10-26T10:36:10.184Z,101878.53
2022-10-26T10:38:39.316Z,101878.22
2022-10-26T10:41:16.571Z,101880.66
2022-10-26T10:43:48.300Z,101875.81
2022-10-26T10:46:19.863Z,101876.16
2022-10-26T10:48:51.036Z,101876.69
2022-10-26T10:51:22.461Z,101875.19
2022-10-26T10:53:56.857Z,101877.44
2022-10-26T10:56:31.393Z,101877.69
2022-10-26T10:59:37.521Z,101869.56
2022-10-26T11:02:34.670Z,101870.38
2022-10-26T11:05:23.396Z,101872.66
2022-10-26T11:07:56.663Z,101865.72
2022-10-26T11:10:30.137Z,101856.00
2022-10-26T11:13:02.428Z,101860.66
2022-10-26T11:15:33.908Z,101860.41
2022-10-26T11:18:07.552Z,101863.00
2022-10-26T11:20:43.037Z,101849.22
2022-10-26T11:23:18.333Z,101849.59
2022-10-26T11:26:10.278Z,101855.44
2022-10-26T11:28:52.287Z,101856.72
2022-10-26T11:31:38.054Z,101837.06
2022-10-26T11:34:32.035Z,101840.22
2022-10-26T11:37:08.505Z,101854.00
2022-10-26T11:39:46.410Z,101828.84
2022-10-26T11:42:19.763Z,101836.34
2022-10-26T11:45:04.144Z,101834.28
2022-10-26T11:47:44.163Z,101839.09
2022-10-26T11:50:17.345Z,101841.50
2022-10-26T11:52:49.452Z,101831.31
2022-10-26T11:55:18.504Z,101829.16
2022-10-26T11:57:49.337Z,101834.88
2022-10-26T12:00:20.568Z,101831.53
2022-10-26T12:02:57.267Z,101831.28
2022-10-26T12:05:39.861Z,101826.44
2022-10-26T12:08:16.023Z,101823.38
2022-10-26T12:10:52.883Z,101821.91
2022-10-26T12:13:48.110Z,101822.94
2022-10-26T12:16:50.028Z,101825.78
2022-10-26T12:19:21.536Z,101822.31
2022-10-26T12:21:50.939Z,101822.06
2022-10-26T12:24:24.552Z,101814.94
2022-10-26T12:27:30.834Z,101816.84
2022-10-26T12:30:19.831Z,101814.78
2022-10-26T12:32:50.646Z,101815.22
2022-10-26T12:35:37.918Z,101819.06
2022-10-26T12:38:24.086Z,101807.88
2022-10-26T12:41:07.371Z,101798.91
2022-10-26T12:43:40.487Z,101804.78
2022-10-26T12:46:13.838Z,101800.16
2022-10-26T12:48:45.448Z,101796.69
2022-10-26T12:51:21.869Z,101796.13
2022-10-26T12:54:12.372Z,101795.72
2022-10-26T12:56:49.672Z,101792.94
2022-10-26T12:59:20.409Z,101791.56
2022-10-26T13:02:21.916Z,101801.47
2022-10-26T13:04:54.772Z,101795.56
2022-10-26T13:07:33.762Z,101798.53
2022-10-26T13:10:03.595Z,101799.56
2022-10-26T13:12:39.243Z,101791.34
2022-10-26T13:15:28.257Z,101794.59
2022-10-26T13:18:00.181Z,101786.34
2022-10-26T13:20:30.370Z,101781.13
2022-10-26T13:22:58.708Z,101777.09
2022-10-26T13:25:29.300Z,101780.81
2022-10-26T13:28:21.873Z,101769.38
2022-10-26T13:30:53.987Z,101766.41
2022-10-26T13:33:30.079Z,101769.72
2022-10-26T13:36:02.019Z,101773.44
2022-10-26T13:38:33.390Z,101778.31
2022-10-26T13:41:16.872Z,101757.56
2022-10-26T13:43:44.242Z,101758.13
2022-10-26T13:46:30.250Z,101772.44
2022-10-26T13:49:05.967Z,101761.09
2022-10-26T13:51:44.082Z,101768.81
2022-10-26T13:54:29.882Z,101775.47
2022-10-26T13:57:00.214Z,101769.50
2022-10-26T13:59:30.403Z,101754.97
2022-10-26T14:02:41.857Z,101773.16
2022-10-26T14:05:10.351Z,101782.19
2022-10-26T14:07:59.735Z,101780.34
2022-10-26T14:10:28.814Z,101777.81
2022-10-26T14:12:57.527Z,101771.03
2022-10-26T14:15:30.716Z,101774.66
2022-10-26T14:17:59.967Z,101777.44
2022-10-26T14:20:30.067Z,101785.03
2022-10-26T14:22:57.626Z,101776.66
2022-10-26T14:25:36.230Z,101778.38
2022-10-26T14:28:40.623Z,101781.81
2022-10-26T14:31:30.297Z,101786.25
2022-10-26T14:34:00.247Z,101784.75
2022-10-26T14:36:43.072Z,101781.59
2022-10-26T14:39:31.628Z,101791.56
2022-10-26T14:42:02.390Z,101784.97
2022-10-26T14:44:30.237Z,101786.72
2022-10-26T14:46:57.572Z,101788.75
2022-10-26T14:49:27.880Z,101792.34
2022-10-26T14:52:06.595Z,101795.78
2022-10-26T14:54:34.819Z,101789.22
2022-10-26T14:57:08.624Z,101790.75
2022-10-26T14:59:35.848Z,101798.19
2022-10-26T15:02:24.585Z,101791.72
2022-10-26T15:05:01.395Z,101795.88
2022-10-26T15:07:39.706Z,101803.97
2022-10-26T15:10:36.052Z,101796.06
2022-10-26T15:13:29.479Z,101795.75
2022-10-26T15:16:31.449Z,101807.72
2022-10-26T15:19:08.045Z,101793.81
2022-10-26T15:21:41.651Z,101803.72
2022-10-26T15:24:21.297Z,101805.16
2022-10-26T15:26:48.672Z,101804.72
2022-10-26T15:29:34.724Z,101801.81
2022-10-26T15:34:32.860Z,101804.91
2022-10-26T15:37:00.676Z,101812.09
2022-10-26T15:39:27.928Z,101806.41
2022-10-26T15:41:55.875Z,101810.97
2022-10-26T15:44:23.158Z,101808.66
2022-10-26T15:46:51.294Z,101808.13
2022-10-26T15:49:20.700Z,101814.34
2022-10-26T15:51:49.373Z,101812.88
2022-10-26T15:54:16.620Z,101828.09
2022-10-26T15:56:44.167Z,101827.25
2022-10-26T15:59:16.225Z,101828.78
2022-10-26T16:01:44.116Z,101826.00
2022-10-26T16:04:12.225Z,101831.09
2022-10-26T16:06:41.707Z,101826.28
2022-10-26T16:09:18.196Z,101829.97
2022-10-26T16:11:45.597Z,101829.84
2022-10-26T16:14:13.085Z,101839.50
2022-10-26T16:16:41.422Z,101844.13
2022-10-26T16:19:30.700Z,101840.25
2022-10-26T16:22:08.456Z,101843.22
2022-10-26T16:24:38.770Z,101850.16
2022-10-26T16:27:06.280Z,101848.34
2022-10-26T16:29:34.710Z,101857.41
2022-10-26T16:32:02.377Z,101856.81
2022-10-26T16:34:31.484Z,101856.72
2022-10-26T16:37:02.651Z,101871.75
2022-10-26T16:39:29.907Z,101871.38
2022-10-26T16:41:58.048Z,101877.66
2022-10-26T16:44:25.272Z,101876.22
2022-10-26T16:46:52.952Z,101883.66
2022-10-26T16:49:20.268Z,101881.59
2022-10-26T16:51:47.752Z,101878.38
2022-10-26T16:54:15.298Z,101889.31
2022-10-26T16:56:43.018Z,101890.84
2022-10-26T16:59:11.102Z,101886.91
2022-10-26T17:01:38.674Z,101893.28
2022-10-26T17:04:06.189Z,101892.56
2022-10-26T17:06:33.445Z,101885.78
2022-10-26T17:09:01.665Z,101892.47
2022-10-26T17:11:28.959Z,101895.47
2022-10-26T17:13:56.465Z,101897.75
2022-10-26T17:16:25.593Z,101899.59
2022-10-26T17:18:54.189Z,101897.94
2022-10-26T17:21:31.068Z,101914.81
2022-10-26T17:23:58.859Z,101914.19
2022-10-26T17:26:26.472Z,101906.53
2022-10-26T17:28:56.686Z,101912.22
2022-10-26T17:31:25.349Z,101920.34
2022-10-26T17:33:52.872Z,101915.94
2022-10-26T17:36:21.757Z,101918.00
2022-10-26T17:38:51.264Z,101919.00
2022-10-26T17:41:21.353Z,101922.28
2022-10-26T17:43:49.737Z,101924.94
2022-10-26T17:46:20.487Z,101928.84
2022-10-26T17:48:48.375Z,101928.84
2022-10-26T17:51:19.661Z,101940.22
2022-10-26T17:53:48.453Z,101940.84
2022-10-26T17:56:22.256Z,101944.22
2022-10-26T17:58:54.661Z,101954.22
2022-10-26T18:01:23.609Z,101955.97
2022-10-26T18:03:52.241Z,101956.75
2022-10-26T18:06:20.144Z,101955.09
2022-10-26T18:08:48.049Z,101957.50
2022-10-26T18:11:22.555Z,101960.34
2022-10-26T18:13:54.163Z,101970.88
2022-10-26T18:16:23.171Z,101971.25
2022-10-26T18:19:00.900Z,101980.47
2022-10-26T18:21:32.917Z,101980.09
2022-10-26T18:24:00.520Z,101981.75
2022-10-26T18:26:29.669Z,101983.69
2022-10-26T18:28:59.462Z,101982.44
2022-10-26T18:31:29.336Z,101988.56
2022-10-26T18:34:02.422Z,101988.25
2022-10-26T18:36:30.415Z,101996.31
2022-10-26T18:38:58.358Z,101993.44
2022-10-26T18:41:26.696Z,101995.28
2022-10-26T18:43:59.004Z,101993.25
2022-10-26T18:46:33.558Z,101998.72
2022-10-26T18:49:01.232Z,101998.66
2022-10-26T18:51:32.484Z,102004.63
2022-10-26T18:54:01.191Z,102001.25
2022-10-26T18:56:29.023Z,102004.16
2022-10-26T18:58:58.737Z,102003.56
2022-10-26T19:01:31.895Z,101998.53
2022-10-26T19:04:02.234Z,101996.34
2022-10-26T19:06:32.549Z,102003.88
2022-10-26T19:09:01.597Z,101998.72
2022-10-26T19:11:31.474Z,101996.66
2022-10-26T19:13:59.994Z,101997.94
2022-10-26T19:16:48.196Z,101998.25
2022-10-26T19:19:16.969Z,102007.09
2022-10-26T19:21:46.499Z,102002.00
2022-10-26T19:24:19.304Z,102012.47
2022-10-26T19:26:47.979Z,102018.25
2022-10-26T19:29:17.208Z,102013.88
2022-10-26T19:31:51.030Z,102013.50
2022-10-26T19:34:19.210Z,102020.34
2022-10-26T19:36:47.020Z,102019.34
2022-10-26T19:39:18.448Z,102021.06
2022-10-26T19:41:46.473Z,102026.00
2022-10-26T19:44:15.324Z,102026.97
2022-10-26T19:46:43.845Z,102027.91
2022-10-26T19:49:17.496Z,102033.69
2022-10-26T19:51:44.854Z,102036.88
2022-10-26T19:54:12.235Z,102039.34
2022-10-26T19:56:40.375Z,102040.25
2022-10-26T19:59:08.240Z,102039.47
2022-10-26T20:01:35.975Z,102041.81
2022-10-26T20:04:04.923Z,102043.50
2022-10-26T20:06:32.419Z,102048.44
2022-10-26T20:09:00.050Z,102060.09
2022-10-26T20:11:28.161Z,102055.59
2022-10-26T20:13:56.422Z,102057.13
2022-10-26T20:16:24.473Z,102060.31
2022-10-26T20:18:51.961Z,102055.94
2022-10-26T20:21:19.877Z,102055.31
2022-10-26T20:23:48.049Z,102062.41
2022-10-26T20:26:19.133Z,102068.38
2022-10-26T20:28:50.919Z,102070.88
2022-10-26T20:31:19.881Z,102069.38
2022-10-26T20:33:53.647Z,102074.47
2022-10-26T20:36:21.758Z,102066.75
2022-10-26T20:38:49.621Z,102076.28
2022-10-26T20:41:18.482Z,102073.75
2022-10-26T20:43:46.290Z,102080.75
2022-10-26T20:46:23.481Z,102091.38
2022-10-26T20:48:52.480Z,102090.09
2022-10-26T20:52:02.640Z,102091.34
2022-10-26T20:54:44.608Z,102098.81
2022-10-26T20:57:17.937Z,102099.88
2022-10-26T20:59:48.335Z,102103.66
2022-10-26T21:02:16.376Z,102106.47
2022-10-26T21:04:43.980Z,102111.13
2022-10-26T21:07:11.236Z,102113.44
2022-10-26T21:09:38.812Z,102110.47
2022-10-26T21:12:06.593Z,102110.66
2022-10-26T21:14:40.529Z,102118.13
2022-10-26T21:17:08.766Z,102112.00
2022-10-26T21:19:36.822Z,102113.69
2022-10-26T21:22:04.197Z,102121.53
2022-10-26T21:24:31.451Z,102114.09
2022-10-26T21:26:58.766Z,102130.81
2022-10-26T21:29:26.004Z,102119.38
2022-10-26T21:31:53.256Z,102121.06
